createdAt,value
2022-11-19T00:03:52.129Z,97717.66
2022-11-19T00:08:55.046Z,97727.22
2022-11-19T00:13:56.881Z,97738.47
2022-11-19T00:18:58.756Z,97740.03
2022-11-19T00:24:00.573Z,97742.41
2022-11-19T00:29:02.399Z,97736.50
2022-11-19T00:34:04.392Z,97735.13
2022-11-19T00:39:06.337Z,97737.47
2022-11-19T00:44:08.281Z,97757.63
2022-11-19T00:49:10.068Z,97756.31
2022-11-19T00:54:11.897Z,97763.72
2022-11-19T00:59:14.122Z,97768.44
2022-11-19T01:04:15.963Z,97764.34
2022-11-19T01:09:18.365Z,97756.94
2022-11-19T01:14:20.229Z,97767.00
2022-11-19T01:19:22.523Z,97761.75
2022-11-19T01:24:24.505Z,97775.53
2022-11-19T01:29:26.493Z,97772.22
2022-11-19T01:34:28.405Z,97768.34
2022-11-19T01:39:30.318Z,97777.38
2022-11-19T01:45:00.165Z,97765.72
2022-11-19T01:50:02.604Z,97781.47
2022-11-19T01:55:04.907Z,97798.72
2022-11-19T02:00:08.237Z,97800.84
2022-11-19T02:05:10.125Z,97811.94
2022-11-19T02:10:12.469Z,97811.97
2022-11-19T02:15:14.280Z,97813.63
2022-11-19T02:20:37.816Z,97812.75
2022-11-19T02:25:42.332Z,97808.09
2022-11-19T02:30:49.718Z,97811.59
2022-11-19T02:36:00.100Z,97811.75
2022-11-19T02:41:28.607Z,97805.72
2022-11-19T02:46:30.568Z,97811.34
2022-11-19T02:51:32.400Z,97818.16
2022-11-19T02:56:53.644Z,97810.88
2022-11-19T03:02:14.723Z,97795.13
2022-11-19T03:07:19.041Z,97809.50
2022-11-19T03:12:26.793Z,97811.03
2022-11-19T03:17:44.909Z,97824.91
2022-11-19T03:22:55.461Z,97826.97
2022-11-19T03:28:03.581Z,97832.22
2022-11-19T03:33:24.528Z,97837.19
2022-11-19T03:38:34.065Z,97841.19
2022-11-19T03:43:39.780Z,97838.53
2022-11-19T03:48:45.214Z,97842.31
2022-11-19T03:53:48.375Z,97845.88
2022-11-19T03:58:50.287Z,97853.41
2022-11-19T04:04:11.018Z,97866.38
2022-11-19T04:09:12.866Z,97856.75
2022-11-19T04:14:14.783Z,97857.25
2022-11-19T04:19:18.285Z,97859.16
2022-11-19T04:24:20.399Z,97862.72
2022-11-19T04:29:22.399Z,97855.91
2022-11-19T04:34:24.261Z,97859.41
2022-11-19T04:39:26.871Z,97854.91
2022-11-19T04:44:29.097Z,97854.16
2022-11-19T04:49:30.918Z,97865.63
2022-11-19T04:54:32.726Z,97865.06
2022-11-19T04:59:34.555Z,97862.34
2022-11-19T05:04:36.414Z,97865.44
2022-11-19T05:09:38.228Z,97864.44
2022-11-19T05:14:40.186Z,97871.38
2022-11-19T05:19:42.040Z,97871.97
2022-11-19T05:24:43.852Z,97882.00
2022-11-19T05:29:45.701Z,97871.97
2022-11-19T05:34:48.571Z,97882.09
2022-11-19T05:39:50.464Z,97889.47
2022-11-19T05:44:52.311Z,97898.75
2022-11-19T05:49:54.137Z,97903.28
2022-11-19T05:54:55.956Z,97901.97
2022-11-19T05:59:57.789Z,97904.84
2022-11-19T06:04:59.609Z,97906.91
2022-11-19T06:10:01.483Z,97909.06
2022-11-19T06:15:03.642Z,97919.13
2022-11-19T06:20:08.847Z,97917.50
2022-11-19T06:25:10.690Z,97928.88
2022-11-19T06:30:13.501Z,97932.81
2022-11-19T06:35:15.411Z,97945.03
2022-11-19T06:40:17.345Z,97945.03
2022-11-19T06:45:19.178Z,97946.91
2022-11-19T06:50:20.987Z,97949.31
2022-11-19T06:55:23.281Z,97951.47
2022-11-19T07:00:25.097Z,97948.81
2022-11-19T07:05:26.943Z,97956.69
2022-11-19T07:10:28.799Z,97955.00
2022-11-19T07:15:30.731Z,97961.78
2022-11-19T07:20:32.670Z,97966.41
2022-11-19T07:25:34.478Z,97949.69
2022-11-19T07:30:36.465Z,97955.31
2022-11-19T07:35:38.295Z,97953.78
2022-11-19T07:40:40.166Z,97952.75
2022-11-19T07:45:41.992Z,97946.09
2022-11-19T07:50:55.144Z,97942.22
2022-11-19T07:56:01.363Z,97938.66
2022-11-19T08:01:11.035Z,97944.13
2022-11-19T08:06:15.522Z,97941.03
2022-11-19T08:11:18.437Z,97946.94
2022-11-19T08:16:39.096Z,97943.09
2022-11-19T08:21:43.195Z,97948.63
2022-11-19T08:26:45.634Z,97956.50
2022-11-19T08:31:48.342Z,97954.06
2022-11-19T08:36:50.247Z,97952.06
2022-11-19T08:42:10.528Z,97949.66
2022-11-19T08:47:12.442Z,97944.66
2022-11-19T08:52:14.729Z,97955.13
2022-11-19T08:57:16.604Z,97940.09
2022-11-19T09:02:18.431Z,97942.34
2022-11-19T09:07:20.349Z,97940.69
2022-11-19T09:12:22.312Z,97943.88
2022-11-19T09:17:24.437Z,97954.53
2022-11-19T09:22:26.450Z,97947.00
2022-11-19T09:27:28.286Z,97950.00
2022-11-19T09:32:30.199Z,97954.44
2022-11-19T09:37:34.221Z,97943.88
2022-11-19T09:42:49.931Z,97950.34
2022-11-19T09:48:35.766Z,97950.59
2022-11-19T09:54:01.652Z,97953.56
2022-11-19T09:59:25.559Z,97943.84
2022-11-19T10:04:31.712Z,97952.53
2022-11-19T10:09:33.481Z,97956.03
2022-11-19T10:14:47.326Z,97958.28
2022-11-19T10:20:04.290Z,97961.13
2022-11-19T10:25:16.546Z,97954.16
2022-11-19T10:30:21.596Z,97961.91
2022-11-19T10:35:30.074Z,97954.50
2022-11-19T10:40:57.685Z,97953.84
2022-11-19T10:46:02.884Z,97943.03
2022-11-19T10:51:19.389Z,97946.41
2022-11-19T10:56:42.300Z,97940.81
2022-11-19T11:01:47.457Z,97945.09
2022-11-19T11:06:51.240Z,97937.88
2022-11-19T11:12:11.800Z,97930.94
2022-11-19T11:17:28.848Z,97932.53
2022-11-19T11:22:31.198Z,97915.16
2022-11-19T11:27:35.664Z,97905.41
2022-11-19T11:32:38.737Z,97911.72
2022-11-19T11:37:40.641Z,97907.75
2022-11-19T11:42:42.547Z,97908.22
2022-11-19T11:47:44.406Z,97902.25
2022-11-19T11:52:52.070Z,97900.22
2022-11-19T11:58:06.266Z,97906.72
2022-11-19T12:03:14.010Z,97907.06
2022-11-19T12:08:37.022Z,97899.22
2022-11-19T12:13:50.717Z,97902.13
2022-11-19T12:18:55.628Z,97899.44
2022-11-19T12:24:12.658Z,97892.34
2022-11-19T12:29:17.762Z,97875.91
2022-11-19T12:34:50.024Z,97872.69
2022-11-19T12:40:19.274Z,97861.34
2022-11-19T12:45:42.186Z,97849.63
2022-11-19T12:51:02.112Z,97843.81
2022-11-19T12:56:22.877Z,97842.19
2022-11-19T13:01:31.119Z,97831.78
2022-11-19T13:06:49.386Z,97835.06
2022-11-19T13:12:02.429Z,97833.94
2022-11-19T13:17:11.357Z,97823.13
2022-11-19T13:22:19.150Z,97822.00
2022-11-19T13:27:23.850Z,97819.25
2022-11-19T13:32:48.710Z,97816.66
2022-11-19T13:38:02.791Z,97817.09
2022-11-19T13:43:32.583Z,97818.38
2022-11-19T13:48:43.260Z,97817.69
2022-11-19T13:53:46.438Z,97819.75
2022-11-19T13:58:52.344Z,97816.84
2022-11-19T14:04:03.224Z,97832.47
2022-11-19T14:09:11.004Z,97833.50
2022-11-19T14:14:40.630Z,97835.94
2022-11-19T14:20:13.870Z,97839.97
2022-11-19T14:26:05.020Z,97843.56
2022-11-19T14:31:07.200Z,97849.66
2022-11-19T14:36:31.807Z,97855.28
2022-11-19T14:41:34.976Z,97849.31
2022-11-19T14:46:42.011Z,97847.66
2022-11-19T14:51:43.936Z,97851.69
2022-11-19T14:56:48.629Z,97847.72
2022-11-19T15:02:12.070Z,97842.13
2022-11-19T15:07:39.407Z,97843.47
2022-11-19T15:12:41.265Z,97843.72
2022-11-19T15:17:43.928Z,97854.34
2022-11-19T15:23:25.077Z,97842.81
2022-11-19T15:28:45.204Z,97842.50
2022-11-19T15:34:19.152Z,97850.00
2022-11-19T15:39:32.053Z,97850.69
2022-11-19T15:44:37.318Z,97857.72
2022-11-19T15:49:42.950Z,97853.66
2022-11-19T15:54:44.826Z,97862.25
2022-11-19T15:59:51.954Z,97850.22
2022-11-19T16:04:53.885Z,97858.56
2022-11-19T16:09:56.348Z,97862.22
2022-11-19T16:15:16.936Z,97852.53
2022-11-19T16:20:21.140Z,97845.75
2022-11-19T16:25:27.706Z,97853.13
2022-11-19T16:30:38.284Z,97844.94
2022-11-19T16:35:40.153Z,97848.91
2022-11-19T16:41:01.770Z,97843.56
2022-11-19T16:46:05.772Z,97843.84
2022-11-19T16:51:38.397Z,97840.69
2022-11-19T16:56:44.043Z,97843.81
2022-11-19T17:01:56.251Z,97847.69
2022-11-19T17:06:59.485Z,97843.25
2022-11-19T17:12:19.878Z,97850.78
2022-11-19T17:17:39.487Z,97840.66
2022-11-19T17:22:42.251Z,97837.50
2022-11-19T17:27:44.768Z,97839.06
2022-11-19T17:32:53.789Z,97849.38
2022-11-19T17:37:56.855Z,97860.63
2022-11-19T17:43:17.176Z,97868.16
2022-11-19T17:48:25.335Z,97875.66
2022-11-19T17:53:27.340Z,97878.78
2022-11-19T17:58:29.363Z,97869.81
2022-11-19T18:03:31.475Z,97873.31
2022-11-19T18:08:35.151Z,97876.13
2022-11-19T18:13:37.361Z,97882.69
2022-11-19T18:18:39.463Z,97879.97
2022-11-19T18:23:42.426Z,97882.75
2022-11-19T18:28:48.843Z,97890.16
2022-11-19T18:33:52.326Z,97898.28
2022-11-19T18:38:56.000Z,97902.41
2022-11-19T18:44:18.242Z,97903.72
2022-11-19T18:49:20.221Z,97898.91
2022-11-19T18:54:22.368Z,97895.31
2022-11-19T18:59:24.611Z,97890.38
2022-11-19T19:04:26.831Z,97896.94
2022-11-19T19:09:28.961Z,97895.59
2022-11-19T19:14:30.905Z,97892.44
2022-11-19T19:19:32.734Z,97896.59
2022-11-19T19:24:34.881Z,97900.44
2022-11-19T19:29:37.413Z,97900.53
2022-11-19T19:34:39.291Z,97896.88
2022-11-19T19:39:41.328Z,97903.31
2022-11-19T19:44:43.502Z,97904.31
2022-11-19T19:49:45.325Z,97913.19
2022-11-19T19:54:47.146Z,97912.69
2022-11-19T19:59:49.018Z,97911.94
2022-11-19T20:04:50.897Z,97919.16
2022-11-19T20:09:52.717Z,97922.56
2022-11-19T20:14:54.580Z,97924.69
2022-11-19T20:19:56.405Z,97914.00
2022-11-19T20:24:58.763Z,97917.75
2022-11-19T20:30:00.834Z,97914.63
2022-11-19T20:35:03.143Z,97917.59
2022-11-19T20:40:05.437Z,97915.75
2022-11-19T20:45:08.392Z,97917.25
2022-11-19T20:50:10.623Z,97918.28
2022-11-19T20:55:12.444Z,97912.31
2022-11-19T21:00:15.642Z,97916.31
2022-11-19T21:05:17.571Z,97922.59
2022-11-19T21:10:19.462Z,97923.13
2022-11-19T21:15:21.296Z,97912.50
2022-11-19T21:20:23.299Z,97909.09
2022-11-19T21:25:25.306Z,97902.53
2022-11-19T21:30:27.145Z,97892.19
2022-11-19T21:35:29.061Z,97897.22
2022-11-19T21:40:30.904Z,97904.31
2022-11-19T21:45:33.001Z,97904.56
2022-11-19T21:50:37.806Z,97905.19
2022-11-19T21:55:43.111Z,97922.25
2022-11-19T22:00:47.021Z,97901.06
2022-11-19T22:06:08.803Z,97894.31
2022-11-19T22:11:30.064Z,97889.06
2022-11-19T22:16:35.747Z,97881.78
2022-11-19T22:21:38.053Z,97882.44
2022-11-19T22:26:39.858Z,97888.31
2022-11-19T22:31:41.713Z,97888.31
2022-11-19T22:36:43.565Z,97876.06
2022-11-19T22:41:45.373Z,97876.50
2022-11-19T22:46:47.317Z,97874.91
2022-11-19T22:51:49.432Z,97871.16
2022-11-19T22:56:51.255Z,97866.09
2022-11-19T23:01:53.121Z,97867.47
2022-11-19T23:06:54.995Z,97869.13
2022-11-19T23:12:15.592Z,97866.03
2022-11-19T23:17:17.418Z,97858.88
2022-11-19T23:22:19.310Z,97843.22
2022-11-19T23:27:22.391Z,97847.53
2022-11-19T23:32:24.297Z,97841.97
2022-11-19T23:37:26.204Z,97847.03
2022-11-19T23:42:28.008Z,97847.28
2022-11-19T23:47:29.958Z,97851.28
2022-11-19T23:52:31.856Z,97844.88
2022-11-19T23:57:33.662Z,97841.97
